Creek Data

    Home     View Charts     View Raw Data     Messages

ID Distance Battery Voltage Battery Current Internal Temp Internal Humidity External Temp Solar Input rssi snr Time Stamp Record
65536 15.0 3.85 -5 51 52 52 0.1 -76 8 02/06/2026 07:45 PM 48329
65535 15.0 3.85 -5 52 52 54 0 -76 8 02/06/2026 07:30 PM 48328
65534 15.0 3.85 -5 52 54 55 0 -76 8 02/06/2026 07:15 PM 48327
65533 15.0 3.85 -5 53 55 55 0 -76 8 02/06/2026 07:00 PM 48326
65532 15.0 3.85 -5 54 55 53 0 -76 8 02/06/2026 06:45 PM 48325
65531 15.0 3.85 -5 56 56 55 0 -76 8 02/06/2026 06:30 PM 48324
65530 15.0 3.85 -5 57 57 57 0 -76 8 02/06/2026 06:15 PM 48323
65529 15.0 3.85 -5 60 58 58 0 -76 8 02/06/2026 06:00 PM 48322
65528 15.0 3.85 -34 62 59 61 1.5 -76 8 02/06/2026 05:45 PM 48321
65527 15.1 3.92 0 66 58 63 4.5 -76 7 02/06/2026 05:30 PM 48320
65526 15.1 3.94 8 70 57 65 4.5 -75 8 02/06/2026 05:15 PM 48319
65525 15.1 3.93 7 75 55 68 4.5 -75 8 02/06/2026 05:00 PM 48318
65524 15.1 3.99 51 79 53 71 4.5 -75 8 02/06/2026 04:45 PM 48317
65523 15.1 4.00 9 83 51 72 5.1 -76 7 02/06/2026 04:30 PM 48316
65522 15.1 3.90 0 82 51 72 5.1 -76 8 02/06/2026 04:15 PM 48315
65521 15.1 3.90 0 84 50 74 5.1 -75 8 02/06/2026 04:00 PM 48314
65520 15.1 3.90 9 87 47 74 5.1 -75 8 02/06/2026 03:45 PM 48313
65519 15.2 3.91 9 85 49 71 5.1 -75 7 02/06/2026 03:30 PM 48312
65518 15.2 3.90 9 82 51 70 5.1 -75 8 02/06/2026 03:15 PM 48311
65517 15.2 3.90 9 88 46 69 5.1 -75 7 02/06/2026 02:45 PM 48309
65516 15.3 3.90 9 89 44 70 5.1 -75 8 02/06/2026 02:30 PM 48308
65515 15.3 4.03 9 88 44 69 5.1 -75 7 02/06/2026 02:15 PM 48307
65514 15.3 3.90 0 88 43 70 5.1 -75 8 02/06/2026 02:00 PM 48306
65513 15.3 4.01 9 86 43 70 5.1 -75 8 02/06/2026 01:45 PM 48305
65512 15.2 4.11 9 83 44 69 5.1 -75 8 02/06/2026 01:30 PM 48304